Time;durP1;ratioP1;P1;durP2;ratioP2;P2;SDS_P1;SDS_P2;PMS_P1;PMS_P2;Temp;Humidity;BMP_temperature;BMP_pressure;BME280_temperature;BME280_humidity;BME280_pressure;Samples;Min_cycle;Max_cycle;Signal;HPM_P1;HPM_P2
2021/12/07 00:00:57;;;;;;;9.30;5.82;;;2.20;99.90;;;;;;5104395;28;20461;-78
2021/12/07 00:03:23;;;;;;;9.60;5.53;;;2.30;99.90;;;;;;5086452;28;20028;-79
2021/12/07 00:05:50;;;;;;;8.75;5.45;;;2.20;99.90;;;;;;5086803;28;20059;-79
2021/12/07 00:08:19;;;;;;;10.73;5.03;;;2.30;99.90;;;;;;5105021;28;20015;-78
2021/12/07 00:10:45;;;;;;;8.63;4.47;;;2.30;99.90;;;;;;5104641;28;20028;-79
2021/12/07 00:13:11;;;;;;;6.97;4.30;;;2.30;99.90;;;;;;5104593;28;20043;-78
2021/12/07 00:15:38;;;;;;;5.78;3.95;;;2.30;99.90;;;;;;5083805;28;20050;-79
2021/12/07 00:18:07;;;;;;;6.13;3.65;;;2.40;99.90;;;;;;5086708;28;20032;-78
2021/12/07 00:20:33;;;;;;;5.32;3.30;;;2.40;99.90;;;;;;5085690;28;20028;-78
2021/12/07 00:23:03;;;;;;;4.97;3.20;;;2.60;99.90;;;;;;5103836;28;20035;-79
2021/12/07 00:25:30;;;;;;;5.28;3.40;;;2.70;99.90;;;;;;5085904;28;20028;-77
2021/12/07 00:27:55;;;;;;;5.88;3.00;;;2.70;99.90;;;;;;5086658;28;20085;-78
2021/12/07 00:30:27;;;;;;;6.45;3.53;;;2.80;99.90;;;;;;5085517;28;20024;-79
2021/12/07 00:33:07;;;;;;;6.00;3.53;;;2.90;99.90;;;;;;5104474;28;20031;-79
2021/12/07 00:35:34;;;;;;;4.80;3.17;;;2.90;99.90;;;;;;5103539;28;20305;-78
2021/12/07 00:38:07;;;;;;;7.20;3.60;;;2.90;99.90;;;;;;5104224;28;20054;-79
2021/12/07 00:40:35;;;;;;;5.75;3.28;;;2.90;99.90;;;;;;5103580;28;20044;-78
2021/12/07 00:43:01;;;;;;;4.93;2.97;;;2.90;99.90;;;;;;5085783;28;20371;-79
2021/12/07 00:45:31;;;;;;;5.47;2.88;;;3.00;99.90;;;;;;5082674;28;20048;-79
2021/12/07 00:47:57;;;;;;;5.18;2.90;;;3.00;99.90;;;;;;5103892;28;20020;-79
2021/12/07 00:50:24;;;;;;;5.70;3.30;;;3.00;99.90;;;;;;5085640;28;20112;-78
2021/12/07 00:52:51;;;;;;;5.07;3.35;;;3.00;99.90;;;;;;5104445;28;20035;-79
2021/12/07 00:55:24;;;;;;;5.35;3.90;;;3.00;99.90;;;;;;5085763;28;20039;-80
2021/12/07 00:57:53;;;;;;;5.30;3.10;;;3.00;99.90;;;;;;5086014;28;20036;-79
2021/12/07 01:00:20;;;;;;;5.93;3.55;;;2.90;99.90;;;;;;5084877;28;20051;-79
2021/12/07 01:02:46;;;;;;;5.22;3.25;;;2.80;99.90;;;;;;5103188;28;20039;-78
2021/12/07 01:05:22;;;;;;;6.32;3.20;;;2.70;99.90;;;;;;5103805;28;20047;-77
2021/12/07 01:26:51;;;;;;;5.18;3.40;;;2.50;99.90;;;;;;5103205;28;20040;-78
2021/12/07 01:29:20;;;;;;;6.20;3.33;;;2.50;99.90;;;;;;5085345;28;20253;-79
2021/12/07 01:32:12;;;;;;;5.55;3.03;;;2.50;99.90;;;;;;5084140;28;20043;-78
2021/12/07 01:37:57;;;;;;;4.80;3.08;;;2.50;99.90;;;;;;5064760;28;20032;-79
2021/12/07 01:49:41;;;;;;;5.80;2.85;;;2.20;99.90;;;;;;5076335;28;20095;-78
2021/12/07 01:51:11;;;;;;;5.35;3.28;;;2.20;99.90;;;;;;5101173;28;20222;-78
2021/12/07 02:01:52;;;;;;;4.65;2.90;;;2.60;99.90;;;;;;5082769;28;20086;-79
2021/12/07 02:04:18;;;;;;;5.15;2.90;;;2.70;99.90;;;;;;5065012;28;20096;-78
2021/12/07 02:06:44;;;;;;;5.45;3.08;;;2.80;99.90;;;;;;5064430;28;20021;-78
2021/12/07 02:09:11;;;;;;;4.38;2.60;;;2.80;99.90;;;;;;5064959;28;20310;-78
2021/12/07 02:11:46;;;;;;;6.03;2.90;;;2.70;99.90;;;;;;5064121;28;20043;-77
2021/12/07 02:14:18;;;;;;;5.15;2.78;;;2.70;99.90;;;;;;5064510;28;20076;-78
2021/12/07 02:16:49;;;;;;;4.28;2.90;;;2.70;99.90;;;;;;5047932;28;20251;-78
2021/12/07 02:19:16;;;;;;;4.68;3.05;;;2.60;99.90;;;;;;5064718;28;20091;-79
2021/12/07 02:21:42;;;;;;;5.45;3.08;;;2.60;99.90;;;;;;5064948;28;20086;-78
2021/12/07 02:24:15;;;;;;;5.53;3.05;;;2.60;99.90;;;;;;5070275;28;20028;-77
2021/12/07 02:26:41;;;;;;;4.90;3.00;;;2.60;99.90;;;;;;5073747;28;20031;-78
2021/12/07 02:29:09;;;;;;;4.22;2.67;;;2.60;99.90;;;;;;5066501;28;20012;-80
2021/12/07 02:31:36;;;;;;;4.53;2.80;;;2.70;99.90;;;;;;5115965;28;20043;-80
2021/12/07 02:34:03;;;;;;;5.43;3.00;;;2.70;99.90;;;;;;5098494;28;20032;-79
2021/12/07 02:36:29;;;;;;;4.68;2.75;;;2.70;99.90;;;;;;5106076;28;20020;-79
2021/12/07 02:38:56;;;;;;;4.15;2.38;;;2.80;99.90;;;;;;5085274;28;20035;-78
2021/12/07 02:41:22;;;;;;;4.10;2.00;;;2.90;99.90;;;;;;5084649;28;20092;-79
2021/12/07 02:43:48;;;;;;;4.75;2.53;;;3.00;99.90;;;;;;5102487;28;20032;-78
2021/12/07 02:46:14;;;;;;;5.53;2.53;;;3.10;99.90;;;;;;5084555;28;20372;-79
2021/12/07 02:48:40;;;;;;;3.55;2.17;;;3.10;99.90;;;;;;5087536;28;20023;-79
2021/12/07 02:51:06;;;;;;;3.50;2.13;;;3.20;99.90;;;;;;5106589;28;20036;-78
2021/12/07 02:53:34;;;;;;;4.05;2.13;;;3.10;99.90;;;;;;5087561;28;20207;-78
2021/12/07 02:56:01;;;;;;;;;;;3.10;99.90;;;;;;5088573;28;20028;-78
2021/12/07 02:58:31;;;;;;;5.43;2.60;;;3.10;99.90;;;;;;5071478;28;19900;-78
2021/12/07 03:01:08;;;;;;;3.67;1.95;;;3.20;99.90;;;;;;5105616;28;20435;-78
2021/12/07 03:03:39;;;;;;;3.97;2.33;;;3.10;99.90;;;;;;5085884;28;20032;-79
2021/12/07 03:06:26;;;;;;;3.80;2.10;;;3.10;99.90;;;;;;5088135;28;20024;-77
2021/12/07 03:28:09;;;;;;;3.83;1.80;;;3.00;99.90;;;;;;5087512;28;20020;-79
2021/12/07 03:30:36;;;;;;;5.18;1.50;;;3.00;99.90;;;;;;5087279;28;20049;-78
2021/12/07 03:33:03;;;;;;;3.28;1.85;;;2.90;99.90;;;;;;5087731;28;20085;-80
2021/12/07 03:35:31;;;;;;;3.90;2.22;;;2.90;99.90;;;;;;5088238;28;20024;-78
2021/12/07 03:37:57;;;;;;;3.35;1.80;;;2.90;99.90;;;;;;5088117;28;20027;-79
2021/12/07 03:40:24;;;;;;;3.35;1.70;;;2.90;99.90;;;;;;5085391;28;20077;-78
2021/12/07 03:42:50;;;;;;;3.08;1.30;;;2.80;99.90;;;;;;5070221;28;20032;-78
2021/12/07 03:45:16;;;;;;;3.03;1.77;;;2.70;99.90;;;;;;5087197;28;20031;-77
2021/12/07 03:47:43;;;;;;;2.80;1.65;;;2.60;99.90;;;;;;5086378;28;20028;-78
2021/12/07 03:50:11;;;;;;;2.90;1.50;;;2.60;99.90;;;;;;5087288;28;20144;-78
2021/12/07 03:52:37;;;;;;;3.80;2.00;;;2.60;99.90;;;;;;5086704;28;20169;-78
2021/12/07 03:55:05;;;;;;;2.58;1.45;;;2.50;99.90;;;;;;5086873;28;20028;-78
2021/12/07 03:57:31;;;;;;;3.08;1.30;;;2.60;99.90;;;;;;5105059;28;20039;-78
2021/12/07 03:59:59;;;;;;;2.92;1.60;;;2.50;99.90;;;;;;5086152;28;20047;-79
2021/12/07 04:02:25;;;;;;;2.30;1.20;;;2.60;99.90;;;;;;5086849;28;20218;-79
2021/12/07 04:04:58;;;;;;;2.88;1.20;;;2.70;99.90;;;;;;5086403;28;20023;-78
2021/12/07 04:07:24;;;;;;;2.58;1.10;;;2.80;99.90;;;;;;5086645;28;20322;-79
2021/12/07 04:09:50;;;;;;;3.22;1.30;;;2.90;99.90;;;;;;5069556;28;20020;-79
2021/12/07 04:12:16;;;;;;;3.13;1.20;;;3.00;99.90;;;;;;5086675;28;20035;-78
2021/12/07 04:14:42;;;;;;;3.20;1.10;;;3.00;99.90;;;;;;5103240;28;20028;-78
2021/12/07 04:17:08;;;;;;;2.72;1.38;;;3.10;99.90;;;;;;5085472;28;20128;-78
2021/12/07 04:19:34;;;;;;;2.95;1.20;;;3.10;99.90;;;;;;5104130;28;20035;-78
2021/12/07 04:22:00;;;;;;;2.08;0.95;;;3.10;99.90;;;;;;5086301;28;20023;-78
2021/12/07 04:24:27;;;;;;;4.80;1.25;;;3.10;99.90;;;;;;5104673;28;20249;-78
2021/12/07 04:26:56;;;;;;;2.85;1.02;;;3.10;99.90;;;;;;5103646;28;20226;-79
2021/12/07 04:29:22;;;;;;;3.13;1.10;;;3.10;99.90;;;;;;5104432;28;20091;-80
2021/12/07 04:31:48;;;;;;;2.15;0.88;;;3.10;99.90;;;;;;5103915;28;20020;-79
2021/12/07 04:34:14;;;;;;;2.85;1.00;;;3.20;99.90;;;;;;5086453;28;20028;-78
2021/12/07 04:36:40;;;;;;;4.22;1.15;;;3.20;99.90;;;;;;5068985;28;20028;-78
2021/12/07 04:39:05;;;;;;;2.92;1.15;;;3.20;99.90;;;;;;5104257;28;20016;-78
2021/12/07 04:41:33;;;;;;;3.47;0.90;;;3.20;99.90;;;;;;5086050;28;20069;-78
2021/12/07 04:44:01;;;;;;;3.17;1.00;;;3.20;99.90;;;;;;5103573;28;20313;-79
2021/12/07 04:46:44;;;;;;;2.58;1.00;;;3.30;99.90;;;;;;5103863;28;20426;-78
2021/12/07 04:59:36;;;;;;;3.42;1.52;;;3.30;99.90;;;;;;5103588;28;20052;-79
2021/12/07 05:02:03;;;;;;;4.15;1.38;;;3.30;99.90;;;;;;5086167;28;20210;-79
2021/12/07 05:04:32;;;;;;;3.60;1.65;;;3.30;99.90;;;;;;5103815;28;20036;-78
2021/12/07 05:07:19;;;;;;;4.85;1.98;;;3.30;99.90;;;;;;5103087;28;20330;-78
2021/12/07 05:14:43;;;;;;;6.47;2.25;;;3.00;99.90;;;;;;5102744;28;20217;-78
2021/12/07 05:17:40;;;;;;;8.13;2.58;;;2.80;99.90;;;;;;5085493;28;20028;-77
2021/12/07 05:34:43;;;;;;;8.23;2.30;;;2.20;99.90;;;;;;5102466;28;19904;-78
2021/12/07 05:39:55;;;;;;;6.03;1.52;;;2.00;99.90;;;;;;5084646;28;20081;-79
2021/12/07 05:42:23;;;;;;;5.45;2.22;;;1.90;99.90;;;;;;5104667;28;20042;-77
2021/12/07 05:44:50;;;;;;;6.25;2.10;;;1.70;99.90;;;;;;5102298;28;20051;-77
2021/12/07 05:47:16;;;;;;;3.70;1.40;;;1.70;99.90;;;;;;5084854;28;20214;-78
2021/12/07 05:49:44;;;;;;;4.30;1.48;;;1.70;99.90;;;;;;5102059;28;20035;-79
2021/12/07 05:52:09;;;;;;;4.28;1.40;;;2.00;99.90;;;;;;5102989;28;20078;-78
2021/12/07 05:54:36;;;;;;;6.88;2.25;;;2.20;99.90;;;;;;5085196;28;20036;-80
2021/12/07 05:57:02;;;;;;;4.00;1.70;;;2.20;99.90;;;;;;5067998;28;20027;-78
2021/12/07 05:59:28;;;;;;;6.45;2.17;;;2.20;99.90;;;;;;5105032;28;20020;-78
2021/12/07 06:01:53;;;;;;;6.22;1.60;;;2.20;99.90;;;;;;5092566;28;20058;-76
2021/12/07 06:04:19;;;;;;;5.30;2.38;;;2.20;99.90;;;;;;5107250;28;20039;-78
2021/12/07 06:06:45;;;;;;;5.15;1.67;;;2.40;99.90;;;;;;5105708;28;20028;-78
2021/12/07 06:09:12;;;;;;;5.88;2.00;;;2.50;99.90;;;;;;5085242;28;20031;-78
2021/12/07 06:11:38;;;;;;;7.22;1.80;;;2.60;99.90;;;;;;5083330;28;20048;-78
2021/12/07 06:14:04;;;;;;;5.22;1.52;;;2.70;99.90;;;;;;5082384;28;20036;-78
2021/12/07 06:16:31;;;;;;;8.07;1.50;;;2.80;99.90;;;;;;5082103;28;20056;-79
2021/12/07 06:18:58;;;;;;;5.80;1.40;;;3.00;99.90;;;;;;5091486;28;20035;-78
2021/12/07 06:21:25;;;;;;;6.22;1.40;;;3.10;99.90;;;;;;5084913;28;20032;-77
2021/12/07 06:23:52;;;;;;;9.38;1.70;;;3.10;99.90;;;;;;5107300;28;20093;-78
2021/12/07 06:26:19;;;;;;;3.70;1.00;;;3.20;99.90;;;;;;5106789;28;20028;-78
2021/12/07 06:28:45;;;;;;;6.50;1.42;;;3.30;99.90;;;;;;5106027;28;20259;-77
2021/12/07 06:31:11;;;;;;;3.83;1.35;;;3.30;99.90;;;;;;5105743;28;20036;-78
2021/12/07 06:33:37;;;;;;;5.38;1.30;;;3.30;99.90;;;;;;5106603;28;20371;-77
2021/12/07 06:36:04;;;;;;;5.55;1.10;;;3.40;99.90;;;;;;5095736;28;20085;-79
2021/12/07 06:38:33;;;;;;;4.07;1.08;;;3.30;99.90;;;;;;5086231;28;20055;-79
2021/12/07 06:41:01;;;;;;;5.50;1.40;;;3.30;99.90;;;;;;5094188;28;20095;-79
2021/12/07 06:43:27;;;;;;;;;;;3.40;99.90;;;;;;5107117;28;20036;-78
2021/12/07 06:45:54;;;;;;;6.93;1.70;;;3.40;99.90;;;;;;5086713;28;20090;-78
2021/12/07 06:48:20;;;;;;;5.72;1.70;;;3.50;99.90;;;;;;5087291;28;20103;-80
2021/12/07 06:50:46;;;;;;;6.57;1.63;;;3.50;99.90;;;;;;5087850;28;20040;-78
2021/12/07 06:53:12;;;;;;;7.60;1.58;;;3.60;99.90;;;;;;5106311;28;20028;-75
2021/12/07 06:55:38;;;;;;;6.35;1.88;;;3.50;99.90;;;;;;5105694;28;20087;-78
2021/12/07 06:58:04;;;;;;;7.68;1.75;;;3.60;99.90;;;;;;5087429;28;20043;-77
2021/12/07 07:00:31;;;;;;;6.45;1.90;;;3.60;99.90;;;;;;5105515;28;20215;-78
2021/12/07 07:02:57;;;;;;;5.68;2.47;;;3.50;99.90;;;;;;5105331;28;20039;-78
2021/12/07 07:05:23;;;;;;;5.47;2.08;;;3.50;99.90;;;;;;5087547;28;20103;-77
2021/12/07 07:07:49;;;;;;;4.05;1.50;;;3.60;99.90;;;;;;5105212;28;20039;-77
2021/12/07 07:10:17;;;;;;;7.28;1.55;;;3.60;99.90;;;;;;5105487;28;20028;-79
2021/12/07 07:12:44;;;;;;;5.07;1.73;;;3.70;99.90;;;;;;5098840;28;20034;-77
2021/12/07 07:15:10;;;;;;;7.90;1.80;;;3.80;99.90;;;;;;5069769;28;20054;-79
2021/12/07 07:17:36;;;;;;;5.90;1.45;;;3.90;99.90;;;;;;5087621;28;20020;-79
2021/12/07 07:20:04;;;;;;;6.63;1.80;;;3.90;99.90;;;;;;5096638;28;20027;-79
2021/12/07 07:22:30;;;;;;;6.97;1.67;;;3.80;99.90;;;;;;5067185;28;20044;-79
2021/12/07 07:24:56;;;;;;;5.07;1.65;;;3.80;99.90;;;;;;5084975;28;20012;-80
2021/12/07 07:27:22;;;;;;;7.65;2.13;;;3.80;99.90;;;;;;5084717;28;20031;-77
2021/12/07 07:29:47;;;;;;;6.72;2.10;;;3.80;99.90;;;;;;5068433;28;20030;-77
2021/12/07 07:32:13;;;;;;;6.43;1.95;;;3.70;99.90;;;;;;5105160;28;20039;-78
2021/12/07 07:34:39;;;;;;;8.05;2.10;;;3.70;99.90;;;;;;5105090;28;20031;-77
2021/12/07 07:37:05;;;;;;;6.88;2.03;;;3.60;99.90;;;;;;5078512;28;20045;-77
2021/12/07 07:39:32;;;;;;;5.93;2.45;;;3.60;99.90;;;;;;5084552;28;20028;-79
2021/12/07 07:41:58;;;;;;;8.30;2.40;;;3.60;99.90;;;;;;5058197;28;20139;-79
2021/12/07 07:44:37;;;;;;;5.70;2.00;;;3.50;99.90;;;;;;5104176;28;20024;-78
2021/12/07 07:47:04;;;;;;;6.20;1.77;;;3.50;99.90;;;;;;5068664;28;20040;-79
2021/12/07 07:49:30;;;;;;;8.13;2.10;;;3.50;99.90;;;;;;5104649;28;20012;-80
2021/12/07 07:51:55;;;;;;;5.25;2.25;;;3.50;99.90;;;;;;5086586;28;20347;-77
2021/12/07 07:54:24;;;;;;;6.95;2.10;;;3.60;99.90;;;;;;5086965;28;20086;-78
2021/12/07 07:56:50;;;;;;;7.90;2.13;;;3.70;99.90;;;;;;5086187;28;20256;-77
2021/12/07 07:59:16;;;;;;;7.57;2.45;;;3.80;99.90;;;;;;5086601;28;20028;-79
2021/12/07 08:01:41;;;;;;;10.90;2.38;;;3.90;99.90;;;;;;5085549;28;20059;-78
2021/12/07 08:04:08;;;;;;;5.78;2.15;;;3.80;99.90;;;;;;5086074;28;20341;-78
2021/12/07 08:06:34;;;;;;;6.00;1.60;;;3.90;99.90;;;;;;5104424;28;20016;-78
2021/12/07 08:09:00;;;;;;;10.00;1.80;;;4.10;99.90;;;;;;5085952;28;20023;-78
2021/12/07 08:11:26;;;;;;;5.38;1.65;;;4.20;99.90;;;;;;5086649;28;20020;-76
2021/12/07 08:13:52;;;;;;;5.68;2.00;;;4.30;99.90;;;;;;5103685;28;20031;-77
2021/12/07 08:16:22;;;;;;;4.60;1.45;;;4.30;99.90;;;;;;5083896;28;20103;-77
2021/12/07 08:18:50;;;;;;;5.65;1.73;;;4.50;99.90;;;;;;5086047;28;20391;-78
2021/12/07 08:21:17;;;;;;;5.75;1.27;;;4.60;99.90;;;;;;5103592;28;20108;-78
2021/12/07 08:23:43;;;;;;;7.90;1.50;;;4.70;99.90;;;;;;5086319;28;20044;-78
2021/12/07 08:26:13;;;;;;;4.40;1.50;;;4.80;99.90;;;;;;5103773;28;20020;-77
2021/12/07 08:28:42;;;;;;;6.15;1.80;;;4.80;99.90;;;;;;5064385;28;20024;-77
2021/12/07 08:31:08;;;;;;;8.43;1.52;;;5.00;99.90;;;;;;5072559;28;20067;-78
2021/12/07 08:33:40;;;;;;;6.50;1.20;;;5.00;99.90;;;;;;5068298;28;20325;-81
2021/12/07 08:36:06;;;;;;;6.65;1.70;;;5.00;99.90;;;;;;5086816;28;20047;-78
2021/12/07 08:38:34;;;;;;;5.05;1.10;;;5.00;99.90;;;;;;5099868;28;20024;-79
2021/12/07 08:41:00;;;;;;;6.15;1.33;;;5.10;99.90;;;;;;5085520;28;20019;-79
2021/12/07 08:43:32;;;;;;;5.70;1.00;;;5.10;99.90;;;;;;5088527;28;20032;-79
2021/12/07 08:46:01;;;;;;;4.60;1.08;;;5.20;99.90;;;;;;5066281;28;20043;-80
2021/12/07 08:48:27;;;;;;;5.82;1.20;;;5.30;99.90;;;;;;5089107;28;20091;-80
2021/12/07 08:50:56;;;;;;;7.82;1.38;;;5.30;99.90;;;;;;5083194;28;20024;-78
2021/12/07 08:53:23;;;;;;;5.82;1.10;;;5.30;99.90;;;;;;5100845;28;20035;-78
2021/12/07 09:01:23;;;;;;;5.10;1.30;;;5.40;99.90;;;;;;5081929;28;20093;-77
2021/12/07 09:03:52;;;;;;;7.88;1.30;;;5.50;99.90;;;;;;5063778;28;20330;-77
2021/12/07 09:06:18;;;;;;;5.75;1.13;;;5.60;99.90;;;;;;5065152;28;20298;-77
2021/12/07 09:08:44;;;;;;;4.55;1.30;;;5.50;99.90;;;;;;5065041;28;20095;-77
2021/12/07 09:11:12;;;;;;;5.90;1.35;;;5.60;99.90;;;;;;5064542;28;20319;-77
2021/12/07 09:13:39;;;;;;;8.35;1.08;;;5.60;99.90;;;;;;5064852;28;20052;-77
2021/12/07 09:16:06;;;;;;;10.20;1.37;;;5.50;99.90;;;;;;5081808;28;20052;-80
2021/12/07 09:18:32;;;;;;;5.97;1.10;;;5.60;99.90;;;;;;5065115;28;20048;-77
2021/12/07 09:20:59;;;;;;;7.13;1.20;;;5.70;99.90;;;;;;5081912;28;20096;-79
2021/12/07 09:23:30;;;;;;;8.68;1.20;;;5.70;99.90;;;;;;5086805;28;20100;-79
2021/12/07 09:25:56;;;;;;;5.63;1.20;;;5.80;99.90;;;;;;5069052;28;20081;-80
2021/12/07 09:28:22;;;;;;;8.25;2.45;;;5.90;99.90;;;;;;5089184;28;20306;-79
2021/12/07 09:30:51;;;;;;;5.82;1.15;;;5.90;99.90;;;;;;5092827;28;20100;-77
2021/12/07 09:33:28;;;;;;;6.93;1.10;;;5.80;99.90;;;;;;5094968;28;20276;-79
2021/12/07 09:35:55;;;;;;;4.40;0.90;;;5.70;99.90;;;;;;5083279;28;20084;-78
2021/12/07 09:38:23;;;;;;;6.35;1.38;;;5.50;99.90;;;;;;5095540;28;20140;-76
2021/12/07 09:40:53;;;;;;;7.32;1.35;;;5.40;99.90;;;;;;5092346;28;20195;-80
2021/12/07 09:43:19;;;;;;;7.25;1.40;;;5.40;99.90;;;;;;5048371;28;20116;-80
2021/12/07 09:45:45;;;;;;;4.93;1.30;;;5.40;99.90;;;;;;5084191;28;20101;-78
2021/12/07 09:48:12;;;;;;;7.80;1.35;;;5.50;99.90;;;;;;5081944;28;20025;-78
2021/12/07 09:50:42;;;;;;;8.43;1.27;;;5.60;99.90;;;;;;5082855;28;20058;-76
2021/12/07 09:53:11;;;;;;;4.97;1.10;;;5.50;99.90;;;;;;5073223;28;20056;-79
2021/12/07 09:55:38;;;;;;;9.75;1.40;;;5.50;99.90;;;;;;5082753;28;20048;-80
2021/12/07 09:58:05;;;;;;;5.43;1.17;;;5.50;99.90;;;;;;5064019;28;20032;-78
2021/12/07 10:00:32;;;;;;;6.18;1.15;;;5.60;99.90;;;;;;5063503;28;20044;-77
2021/12/07 10:02:58;;;;;;;7.45;1.08;;;5.80;99.90;;;;;;5063681;28;20044;-79
2021/12/07 10:05:26;;;;;;;4.57;0.98;;;5.90;99.90;;;;;;5082106;28;20036;-78
2021/12/07 10:07:52;;;;;;;6.07;1.15;;;6.10;99.90;;;;;;5082558;28;20122;-80
2021/12/07 10:10:44;;;;;;;5.18;0.80;;;6.20;99.90;;;;;;5081775;28;20036;-79
2021/12/07 10:13:12;;;;;;;3.30;0.70;;;6.20;99.90;;;;;;5056979;28;20058;-78
2021/12/07 10:15:39;;;;;;;6.40;1.00;;;6.30;99.90;;;;;;5082066;28;20036;-78
2021/12/07 10:18:12;;;;;;;7.63;0.90;;;6.10;99.90;;;;;;5084028;28;20333;-77
2021/12/07 10:20:59;;;;;;;5.40;0.90;;;6.00;99.90;;;;;;5084890;28;20028;-78
2021/12/07 10:23:36;;;;;;;5.68;1.08;;;6.00;99.90;;;;;;5095089;28;20041;-78
2021/12/07 10:26:21;;;;;;;4.28;1.00;;;6.00;99.90;;;;;;5060487;28;20025;-80
2021/12/07 10:28:55;;;;;;;3.65;1.50;;;5.90;99.90;;;;;;5060618;28;20039;-78
2021/12/07 10:31:41;;;;;;;8.18;1.15;;;5.80;99.90;;;;;;5085096;28;20333;-78
2021/12/07 10:34:11;;;;;;;6.00;2.85;;;5.80;99.90;;;;;;5074833;28;20024;-78
2021/12/07 10:36:46;;;;;;;7.38;1.00;;;5.80;99.90;;;;;;5095486;28;20097;-78
2021/12/07 10:39:36;;;;;;;5.40;0.95;;;5.80;99.90;;;;;;5102360;28;20039;-80
2021/12/07 10:42:14;;;;;;;7.07;1.40;;;5.80;99.90;;;;;;5029129;28;20063;-77
2021/12/07 10:44:41;;;;;;;7.78;1.20;;;5.70;99.90;;;;;;5082884;28;20314;-79
2021/12/07 10:47:12;;;;;;;4.28;1.13;;;5.70;99.90;;;;;;5084454;28;20048;-77
2021/12/07 10:49:43;;;;;;;5.70;0.88;;;5.60;99.90;;;;;;5085724;28;20223;-79
2021/12/07 10:52:14;;;;;;;2.70;0.90;;;5.80;99.90;;;;;;5071352;28;20059;-78
2021/12/07 10:55:06;;;;;;;4.65;1.33;;;6.00;99.90;;;;;;5082283;28;20037;-76
2021/12/07 10:57:59;;;;;;;5.35;1.00;;;6.90;99.90;;;;;;5071040;28;20116;-77
2021/12/07 11:00:36;;;;;;;4.75;0.90;;;7.60;99.90;;;;;;5065843;28;20086;-78
2021/12/07 11:03:21;;;;;;;3.92;1.02;;;7.50;99.90;;;;;;5101571;28;20024;-79
2021/12/07 11:05:51;;;;;;;5.40;1.33;;;7.30;99.90;;;;;;5102149;28;20302;-81
2021/12/07 11:08:21;;;;;;;3.67;0.80;;;8.10;99.90;;;;;;5103497;28;20044;-79
2021/12/07 11:10:51;;;;;;;5.20;0.93;;;9.20;99.90;;;;;;5104010;28;20016;-79
2021/12/07 11:13:23;;;;;;;5.63;1.08;;;10.40;99.90;;;;;;5081380;28;20043;-79
2021/12/07 11:15:57;;;;;;;4.80;0.95;;;10.60;99.90;;;;;;5036042;28;20048;-77
2021/12/07 11:18:35;;;;;;;3.30;1.10;;;10.50;99.90;;;;;;5068709;28;20028;-78
2021/12/07 11:21:07;;;;;;;4.13;1.13;;;11.10;99.60;;;;;;5087015;28;20035;-78
2021/12/07 11:23:39;;;;;;;4.53;1.25;;;11.60;97.70;;;;;;5105288;28;20098;-78
2021/12/07 11:31:23;;;;;;;3.85;0.80;;;10.20;98.40;;;;;;5070112;28;20668;-80
2021/12/07 11:33:51;;;;;;;5.57;0.90;;;9.60;99.80;;;;;;5067125;28;20036;-77
2021/12/07 11:36:25;;;;;;;5.63;0.95;;;8.60;99.90;;;;;;5066241;28;20040;-79
2021/12/07 11:38:52;;;;;;;4.65;0.88;;;8.10;99.90;;;;;;5066608;28;20043;-78
2021/12/07 11:41:21;;;;;;;5.28;0.73;;;7.60;99.90;;;;;;5083576;28;20032;-78
2021/12/07 11:43:59;;;;;;;7.90;1.35;;;7.40;99.90;;;;;;5084779;28;20246;-80
2021/12/07 11:46:28;;;;;;;2.58;0.77;;;8.40;99.90;;;;;;5083738;28;20032;-78
2021/12/07 11:49:07;;;;;;;6.07;0.70;;;8.90;99.50;;;;;;5084098;28;20056;-80
2021/12/07 11:51:34;;;;;;;4.53;0.90;;;9.60;99.30;;;;;;5088473;28;20086;-80
2021/12/07 11:54:00;;;;;;;3.50;0.77;;;10.50;98.30;;;;;;5086270;28;20047;-79
2021/12/07 11:56:26;;;;;;;5.25;0.88;;;11.60;96.30;;;;;;5104115;28;20334;-78
2021/12/07 11:58:52;;;;;;;3.05;0.80;;;11.20;95.80;;;;;;5098951;28;20028;-78
2021/12/07 12:01:19;;;;;;;5.65;0.98;;;12.20;95.20;;;;;;5064498;28;20159;-79
2021/12/07 12:03:44;;;;;;;5.05;0.90;;;13.20;94.70;;;;;;5066035;28;20029;-77
2021/12/07 12:06:10;;;;;;;4.75;0.93;;;13.80;92.30;;;;;;5065422;28;20066;-77
2021/12/07 12:08:37;;;;;;;5.13;0.93;;;13.40;92.90;;;;;;5083511;28;20036;-78
2021/12/07 12:11:21;;;;;;;5.28;0.90;;;12.60;93.30;;;;;;5065652;28;20036;-79
2021/12/07 12:14:15;;;;;;;3.13;0.95;;;11.80;94.30;;;;;;5065881;28;20070;-79
2021/12/07 12:16:56;;;;;;;5.00;0.82;;;12.90;94.00;;;;;;5082100;28;20204;-78
2021/12/07 12:19:57;;;;;;;4.50;0.88;;;14.00;92.90;;;;;;5065686;28;20302;-79
2021/12/07 12:22:37;;;;;;;4.68;1.10;;;15.20;92.30;;;;;;5065390;28;20119;-78
2021/12/07 12:25:08;;;;;;;4.72;1.17;;;14.10;91.80;;;;;;5068381;28;20074;-78
2021/12/07 12:27:35;;;;;;;7.35;1.00;;;13.40;93.40;;;;;;5078326;28;20040;-79
2021/12/07 12:30:17;;;;;;;3.65;0.90;;;13.70;93.90;;;;;;5093353;28;20059;-78
2021/12/07 12:32:46;;;;;;;4.95;0.82;;;14.00;93.10;;;;;;5085011;28;20044;-80
2021/12/07 12:35:14;;;;;;;4.30;1.00;;;14.80;92.60;;;;;;5065816;28;20024;-79
2021/12/07 12:37:49;;;;;;;4.43;0.93;;;15.70;91.00;;;;;;5082940;28;20052;-79
2021/12/07 12:40:30;;;;;;;3.60;0.77;;;15.20;90.40;;;;;;5064956;28;20028;-80
2021/12/07 12:42:57;;;;;;;9.02;1.52;;;13.80;91.70;;;;;;5082927;28;20036;-78
2021/12/07 12:45:29;;;;;;;4.72;1.08;;;12.70;92.50;;;;;;5081582;28;20056;-78
2021/12/07 12:48:27;;;;;;;3.03;1.00;;;11.80;93.90;;;;;;5069581;28;20032;-80
2021/12/07 12:50:54;;;;;;;;;;;11.10;94.70;;;;;;4978898;28;20118;-79
2021/12/07 12:53:26;;;;;;;4.30;0.77;;;10.60;96.00;;;;;;5027919;28;20203;-78
2021/12/07 12:55:54;;;;;;;5.90;1.00;;;10.10;96.60;;;;;;4991376;28;20046;-79
2021/12/07 12:58:21;;;;;;;5.90;0.90;;;10.40;97.20;;;;;;5018976;28;20057;-75
2021/12/07 13:00:56;;;;;;;3.97;0.77;;;10.00;97.20;;;;;;5030601;28;20056;-74
2021/12/07 13:03:24;;;;;;;6.70;1.10;;;10.40;97.80;;;;;;5020779;28;20065;-78
2021/12/07 13:06:00;;;;;;;5.15;1.25;;;11.20;96.60;;;;;;4985832;28;20034;-78
2021/12/07 13:08:27;;;;;;;5.10;0.95;;;10.40;96.30;;;;;;4986663;28;20046;-79
2021/12/07 13:11:02;;;;;;;5.18;1.15;;;10.20;96.30;;;;;;4985491;28;20355;-78
2021/12/07 13:13:36;;;;;;;5.57;0.95;;;9.70;96.10;;;;;;5005157;28;20054;-79
2021/12/07 13:16:17;;;;;;;4.97;1.02;;;9.70;96.80;;;;;;5001519;28;20042;-78
2021/12/07 13:18:44;;;;;;;3.88;0.65;;;9.70;96.10;;;;;;5020572;28;20093;-78
2021/12/07 13:21:38;;;;;;;7.15;0.90;;;9.40;95.90;;;;;;4984075;28;20049;-78
2021/12/07 13:24:29;;;;;;;4.10;0.85;;;9.20;96.30;;;;;;5014541;28;20105;-81
2021/12/07 13:26:56;;;;;;;5.85;1.45;;;9.10;96.60;;;;;;5004336;28;20419;-79
2021/12/07 13:29:24;;;;;;;5.80;1.02;;;9.10;97.30;;;;;;5075070;28;20012;-79
2021/12/07 13:31:56;;;;;;;5.18;1.05;;;8.70;97.70;;;;;;5096439;28;20032;-78
2021/12/07 13:34:34;;;;;;;4.47;1.08;;;9.00;97.50;;;;;;5055443;28;20027;-78
2021/12/07 13:37:08;;;;;;;4.47;1.00;;;9.00;97.30;;;;;;5064757;28;20366;-78
2021/12/07 13:39:49;;;;;;;5.50;0.82;;;8.70;97.80;;;;;;5082073;28;20024;-76
2021/12/07 13:42:18;;;;;;;2.90;0.90;;;8.50;99.00;;;;;;5095254;28;20040;-77
2021/12/07 13:44:48;;;;;;;3.15;0.75;;;8.50;98.60;;;;;;5101963;28;20230;-79
2021/12/07 13:47:17;;;;;;;5.88;1.02;;;8.90;98.50;;;;;;5094145;28;20370;-77
2021/12/07 13:49:51;;;;;;;3.75;0.80;;;9.10;98.20;;;;;;5064160;28;20039;-78
2021/12/07 13:52:20;;;;;;;4.30;0.98;;;9.60;98.20;;;;;;5080575;28;20219;-78
2021/12/07 13:54:51;;;;;;;7.85;1.15;;;9.20;98.40;;;;;;5064297;28;20135;-78
2021/12/07 13:57:22;;;;;;;3.53;0.93;;;8.40;99.40;;;;;;5100059;28;20016;-78
2021/12/07 14:00:17;;;;;;;3.67;0.80;;;8.10;99.90;;;;;;5083623;28;20054;-76
2021/12/07 14:02:49;;;;;;;3.45;0.85;;;7.80;99.90;;;;;;5076757;28;20048;-78
2021/12/07 14:05:25;;;;;;;4.43;1.10;;;7.60;99.90;;;;;;5101463;28;20050;-78
2021/12/07 14:07:52;;;;;;;3.65;1.20;;;7.40;99.90;;;;;;5102231;28;20361;-80
2021/12/07 14:10:24;;;;;;;4.80;0.82;;;7.70;99.90;;;;;;5073712;28;20138;-77
2021/12/07 14:12:53;;;;;;;4.38;1.02;;;7.60;99.90;;;;;;5064236;28;20025;-77
2021/12/07 14:15:25;;;;;;;;;;;7.40;99.90;;;;;;5081883;28;20025;-79
2021/12/07 14:17:56;;;;;;;3.30;1.02;;;7.10;99.90;;;;;;5081483;28;19904;-77
2021/12/07 14:20:30;;;;;;;7.82;1.42;;;6.90;99.90;;;;;;5063126;28;20083;-78
2021/12/07 14:22:57;;;;;;;5.32;1.05;;;6.80;99.90;;;;;;5066742;28;20028;-78
2021/12/07 14:25:24;;;;;;;5.35;1.30;;;7.10;99.90;;;;;;5083428;28;20024;-78
2021/12/07 14:27:51;;;;;;;5.55;1.10;;;7.10;99.90;;;;;;5075936;28;20025;-77
2021/12/07 14:30:17;;;;;;;5.22;1.10;;;6.90;99.90;;;;;;5066348;28;20386;-77
2021/12/07 14:32:45;;;;;;;6.28;1.02;;;7.20;99.90;;;;;;5081760;28;20021;-78
2021/12/07 14:35:12;;;;;;;4.85;1.48;;;8.20;99.90;;;;;;5081146;28;20032;-78
2021/12/07 14:37:38;;;;;;;4.88;1.52;;;8.80;99.90;;;;;;5063553;28;20043;-78
2021/12/07 14:40:06;;;;;;;5.00;1.50;;;9.00;99.90;;;;;;5081408;28;20012;-78
2021/12/07 14:42:32;;;;;;;4.97;1.60;;;9.40;99.90;;;;;;5081541;28;20035;-79
2021/12/07 14:44:59;;;;;;;3.20;1.10;;;9.10;99.90;;;;;;5085267;28;20032;-77
2021/12/07 14:47:26;;;;;;;2.72;0.98;;;8.30;99.90;;;;;;5066604;28;20039;-77
2021/12/07 14:49:56;;;;;;;3.72;0.70;;;7.90;99.90;;;;;;5067489;28;20310;-78
2021/12/07 14:52:32;;;;;;;6.45;1.58;;;7.30;99.90;;;;;;5079401;28;20032;-77